createdAt,value
2022-08-07T00:02:41.101Z,81.00
2022-08-07T00:04:59.585Z,80.80
2022-08-07T00:07:27.367Z,80.00
2022-08-07T00:10:18.747Z,80.30
2022-08-07T00:12:57.908Z,80.70
2022-08-07T00:15:38.083Z,81.20
2022-08-07T00:18:19.513Z,79.90
2022-08-07T00:20:49.494Z,80.20
2022-08-07T00:23:17.089Z,81.00
2022-08-07T00:25:45.887Z,81.20
2022-08-07T00:28:22.034Z,80.60
2022-08-07T00:30:49.280Z,81.20
2022-08-07T00:33:16.305Z,81.10
2022-08-07T00:35:49.088Z,81.50
2022-08-07T00:38:16.438Z,81.60
2022-08-07T00:40:58.930Z,81.90
2022-08-07T00:44:00.252Z,82.40
2022-08-07T00:46:14.440Z,82.60
2022-08-07T00:48:42.219Z,82.70
2022-08-07T00:51:10.267Z,82.90
2022-08-07T00:53:38.538Z,83.00
2022-08-07T00:56:15.961Z,83.50
2022-08-07T00:58:46.575Z,83.90
2022-08-07T01:01:15.921Z,84.20
2022-08-07T01:03:56.694Z,84.20
2022-08-07T01:06:28.411Z,84.10
2022-08-07T01:08:58.288Z,84.10
2022-08-07T01:12:10.299Z,84.10
2022-08-07T01:14:15.525Z,84.40
2022-08-07T01:16:47.401Z,84.50
2022-08-07T01:19:18.759Z,84.90
2022-08-07T01:21:53.454Z,85.00
2022-08-07T01:24:25.682Z,85.00
2022-08-07T01:26:54.160Z,84.90
2022-08-07T01:29:31.450Z,84.60
2022-08-07T01:32:05.484Z,84.80
2022-08-07T01:34:33.302Z,84.60
2022-08-07T01:37:05.970Z,84.50
2022-08-07T01:39:40.886Z,84.80
2022-08-07T01:42:39.473Z,84.50
2022-08-07T01:45:22.716Z,85.10
2022-08-07T01:48:20.824Z,84.60
2022-08-07T01:50:47.062Z,84.50
2022-08-07T01:53:21.136Z,84.30
2022-08-07T01:55:57.714Z,84.60
2022-08-07T01:58:33.374Z,84.10
2022-08-07T02:01:25.046Z,84.20
2022-08-07T02:04:16.213Z,84.20
2022-08-07T02:06:47.914Z,84.10
2022-08-07T02:09:52.128Z,84.40
2022-08-07T02:12:29.207Z,84.20
2022-08-07T02:15:00.888Z,83.80
2022-08-07T02:17:49.450Z,83.90
2022-08-07T02:20:23.688Z,83.70
2022-08-07T02:22:59.746Z,83.50
2022-08-07T02:26:10.618Z,83.50
2022-08-07T02:28:24.438Z,83.80
2022-08-07T02:30:55.270Z,83.60
2022-08-07T02:33:25.434Z,83.60
2022-08-07T02:36:28.379Z,83.70
2022-08-07T02:38:58.397Z,83.50
2022-08-07T02:41:33.586Z,83.40
2022-08-07T02:44:05.630Z,83.60
2022-08-07T02:46:36.723Z,83.70
2022-08-07T02:49:05.619Z,83.60
2022-08-07T02:51:42.587Z,83.70
2022-08-07T02:54:19.997Z,83.60
2022-08-07T02:56:48.557Z,83.70
2022-08-07T02:59:24.193Z,84.00
2022-08-07T03:01:57.676Z,83.80
2022-08-07T03:04:30.379Z,84.00
2022-08-07T03:07:07.252Z,83.90
2022-08-07T03:09:41.858Z,83.80
2022-08-07T03:12:21.987Z,83.70
2022-08-07T03:14:52.251Z,83.80
2022-08-07T03:17:20.212Z,83.50
2022-08-07T03:19:55.154Z,83.40
2022-08-07T03:22:30.194Z,83.70
2022-08-07T03:24:59.971Z,83.90
2022-08-07T03:27:42.222Z,84.40
2022-08-07T03:30:17.936Z,84.20
2022-08-07T03:32:58.327Z,84.40
2022-08-07T03:35:43.569Z,84.40
2022-08-07T03:38:16.332Z,83.70
2022-08-07T03:40:57.375Z,84.00
2022-08-07T03:43:32.371Z,83.80
2022-08-07T03:46:02.983Z,83.30
2022-08-07T03:48:31.774Z,83.00
2022-08-07T03:51:00.522Z,82.60
2022-08-07T03:54:01.967Z,82.60
2022-08-07T03:56:33.545Z,82.50
2022-08-07T03:59:10.156Z,82.40
2022-08-07T04:01:45.350Z,82.50
2022-08-07T04:04:17.294Z,82.50
2022-08-07T04:06:46.506Z,81.70
2022-08-07T04:09:19.697Z,81.40
2022-08-07T04:12:20.914Z,80.80
2022-08-07T04:14:43.701Z,80.50
2022-08-07T04:17:20.243Z,80.50
2022-08-07T04:20:01.487Z,80.50
2022-08-07T04:22:33.398Z,80.30
2022-08-07T04:25:11.851Z,80.00
2022-08-07T04:27:44.221Z,79.40
2022-08-07T04:30:21.558Z,79.80
2022-08-07T04:33:14.045Z,79.50
2022-08-07T04:35:50.436Z,79.60
2022-08-07T04:38:19.311Z,78.80
2022-08-07T04:40:52.074Z,78.60
2022-08-07T04:44:12.364Z,78.40
2022-08-07T04:46:59.233Z,78.70
2022-08-07T04:49:57.353Z,78.80
2022-08-07T04:52:51.864Z,78.30
2022-08-07T04:58:16.493Z,78.20
2022-08-07T04:59:17.141Z,78.10
2022-08-07T05:01:55.761Z,78.90
2022-08-07T05:04:52.057Z,78.40
2022-08-07T05:07:36.811Z,78.80
2022-08-07T05:10:19.530Z,77.80
2022-08-07T05:14:44.794Z,77.80
2022-08-07T05:15:51.638Z,77.80
2022-08-07T05:18:30.686Z,77.30
2022-08-07T05:21:05.790Z,77.30
2022-08-07T05:23:42.033Z,77.80
2022-08-07T05:26:37.268Z,77.50
2022-08-07T05:29:10.122Z,77.50
2022-08-07T05:31:40.715Z,77.30
2022-08-07T05:34:26.201Z,77.40
2022-08-07T05:36:56.554Z,77.10
2022-08-07T05:40:13.390Z,77.10
2022-08-07T05:42:33.262Z,77.20
2022-08-07T05:45:14.358Z,77.20
2022-08-07T05:48:02.017Z,76.70
2022-08-07T05:50:34.258Z,77.40
2022-08-07T05:53:02.646Z,77.30
2022-08-07T05:56:03.213Z,77.10
2022-08-07T05:58:36.101Z,76.20
2022-08-07T06:01:10.490Z,76.60
2022-08-07T06:03:57.298Z,76.60
2022-08-07T06:06:32.290Z,76.60
2022-08-07T06:09:04.663Z,76.50
2022-08-07T06:11:34.475Z,76.30
2022-08-07T06:14:11.884Z,76.40
2022-08-07T06:16:45.799Z,76.00
2022-08-07T06:19:47.924Z,76.40
2022-08-07T06:22:16.402Z,75.90
2022-08-07T06:25:01.163Z,75.60
2022-08-07T06:28:00.499Z,75.70
2022-08-07T06:30:31.876Z,76.00
2022-08-07T06:33:09.720Z,75.50
2022-08-07T06:35:47.908Z,75.10
2022-08-07T06:38:31.149Z,75.70
2022-08-07T06:41:01.202Z,75.50
2022-08-07T06:43:39.130Z,74.60
2022-08-07T06:46:12.625Z,74.90
2022-08-07T06:48:42.040Z,74.00
2022-08-07T06:51:31.259Z,74.60
2022-08-07T06:55:29.920Z,74.30
2022-08-07T06:56:51.661Z,73.80
2022-08-07T07:00:13.246Z,73.80
2022-08-07T07:02:54.444Z,73.30
2022-08-07T07:06:05.676Z,73.20
2022-08-07T07:08:18.618Z,73.60
2022-08-07T07:10:56.377Z,72.70
2022-08-07T07:13:55.424Z,72.20
2022-08-07T07:16:21.978Z,72.10
2022-08-07T07:18:55.821Z,71.60
2022-08-07T07:21:27.200Z,72.10
2022-08-07T07:24:12.569Z,71.70
2022-08-07T07:26:49.630Z,71.00
2022-08-07T07:29:40.185Z,71.60
2022-08-07T07:32:14.028Z,70.90
2022-08-07T07:34:48.660Z,70.60
2022-08-07T07:37:45.418Z,71.00
2022-08-07T07:40:10.156Z,70.90
2022-08-07T07:42:50.923Z,70.80
2022-08-07T07:46:38.487Z,70.80
2022-08-07T07:48:24.195Z,70.80
2022-08-07T07:51:07.962Z,70.30
2022-08-07T07:53:52.168Z,70.50
2022-08-07T07:56:30.079Z,70.00
2022-08-07T07:59:00.185Z,69.80
2022-08-07T08:02:01.964Z,69.80
2022-08-07T08:04:19.671Z,69.00
2022-08-07T08:06:53.784Z,67.30
2022-08-07T08:09:29.687Z,67.50
2022-08-07T08:12:02.487Z,68.40
2022-08-07T08:14:36.706Z,67.80
2022-08-07T08:17:32.483Z,68.20
2022-08-07T08:20:18.119Z,67.80
2022-08-07T08:23:08.467Z,68.30
2022-08-07T08:25:57.937Z,66.60
2022-08-07T08:28:38.091Z,67.20
2022-08-07T08:31:08.505Z,66.00
2022-08-07T08:33:43.850Z,65.30
2022-08-07T08:36:17.894Z,65.40
2022-08-07T08:38:55.467Z,65.00
2022-08-07T08:41:58.466Z,65.20
2022-08-07T08:44:44.330Z,66.10
2022-08-07T08:47:52.165Z,64.90
2022-08-07T08:50:34.826Z,65.20
2022-08-07T08:53:30.193Z,65.30
2022-08-07T08:56:02.174Z,65.10
2022-08-07T08:58:57.092Z,65.00
2022-08-07T09:01:29.898Z,65.50
2022-08-07T09:04:18.803Z,66.40
2022-08-07T09:06:57.944Z,65.30
2022-08-07T09:09:41.177Z,65.80
2022-08-07T09:12:38.957Z,66.30
2022-08-07T09:16:25.154Z,66.30
2022-08-07T09:18:10.077Z,65.90
2022-08-07T09:21:13.779Z,66.70
2022-08-07T09:24:32.871Z,66.40
2022-08-07T09:27:32.320Z,66.20
2022-08-07T09:30:20.649Z,65.80
2022-08-07T09:33:41.231Z,65.90
2022-08-07T09:36:35.832Z,65.40
2022-08-07T09:39:53.987Z,64.90
2022-08-07T09:42:32.937Z,65.80
2022-08-07T09:46:28.684Z,65.40
2022-08-07T09:48:50.314Z,64.20
2022-08-07T09:52:10.209Z,64.00
2022-08-07T09:54:43.966Z,63.80
2022-08-07T09:57:50.034Z,64.00
2022-08-07T10:00:29.892Z,64.30
2022-08-07T10:04:03.270Z,64.40
2022-08-07T10:06:35.863Z,63.40
2022-08-07T10:09:59.222Z,63.00
2022-08-07T10:12:41.206Z,63.30
2022-08-07T10:15:29.993Z,63.10
2022-08-07T10:18:26.301Z,62.60
2022-08-07T10:21:50.859Z,62.60
2022-08-07T10:24:21.605Z,62.80
2022-08-07T10:27:10.394Z,62.60
2022-08-07T10:30:07.279Z,62.80
2022-08-07T10:33:06.995Z,62.40
2022-08-07T10:36:05.447Z,62.20
2022-08-07T10:38:51.231Z,61.60
2022-08-07T10:41:51.816Z,62.00
2022-08-07T10:44:38.459Z,62.20
2022-08-07T10:47:50.612Z,62.10
2022-08-07T10:50:29.135Z,60.90
2022-08-07T10:53:09.681Z,61.90
2022-08-07T10:56:05.049Z,62.40
2022-08-07T10:58:46.092Z,62.40
2022-08-07T11:01:51.515Z,63.00
2022-08-07T11:04:48.227Z,61.90
2022-08-07T11:07:58.416Z,61.90
2022-08-07T11:10:34.733Z,60.60
2022-08-07T11:14:42.035Z,60.40
2022-08-07T11:16:08.041Z,60.50
2022-08-07T11:18:54.224Z,60.90
2022-08-07T11:21:41.039Z,61.00
2022-08-07T11:24:39.336Z,61.60
2022-08-07T11:28:01.858Z,62.10
2022-08-07T11:30:19.447Z,62.30
2022-08-07T11:33:16.846Z,61.50
2022-08-07T11:36:10.021Z,61.40
2022-08-07T11:38:52.370Z,61.40
2022-08-07T11:42:01.366Z,60.80
2022-08-07T11:44:57.948Z,60.90
2022-08-07T11:47:53.547Z,61.40
2022-08-07T11:51:01.761Z,61.20
2022-08-07T11:53:43.222Z,61.10
2022-08-07T11:56:52.269Z,60.70
2022-08-07T12:00:10.084Z,61.00
2022-08-07T12:02:34.005Z,60.20
2022-08-07T12:05:41.202Z,60.90
2022-08-07T12:08:26.091Z,60.30
2022-08-07T12:11:21.228Z,60.00
2022-08-07T12:14:01.550Z,60.40
2022-08-07T12:16:33.882Z,60.40
2022-08-07T12:19:35.526Z,59.10
2022-08-07T12:22:47.262Z,59.50
2022-08-07T12:26:05.799Z,59.60
2022-08-07T12:28:58.908Z,61.00
2022-08-07T12:32:02.266Z,60.70
2022-08-07T12:34:38.416Z,60.40
2022-08-07T12:37:08.582Z,60.50
2022-08-07T12:39:52.785Z,60.10
2022-08-07T12:42:27.989Z,60.30
2022-08-07T12:45:05.686Z,60.10
2022-08-07T12:47:46.379Z,60.20
2022-08-07T12:50:34.017Z,60.60
2022-08-07T12:54:36.477Z,60.10
2022-08-07T12:56:32.145Z,59.40
2022-08-07T12:59:01.286Z,59.10
2022-08-07T13:02:09.958Z,60.70
2022-08-07T13:05:01.541Z,60.70
2022-08-07T13:08:13.347Z,60.30
2022-08-07T13:10:51.980Z,61.00
2022-08-07T13:13:49.504Z,60.40
2022-08-07T13:16:54.815Z,60.50
2022-08-07T13:19:45.852Z,61.50
2022-08-07T13:22:32.303Z,61.50
2022-08-07T13:25:02.516Z,61.60
2022-08-07T13:28:12.371Z,61.90
2022-08-07T13:30:43.927Z,61.20
2022-08-07T13:34:31.449Z,59.90
2022-08-07T13:36:39.346Z,60.80
2022-08-07T13:40:32.944Z,60.60
2022-08-07T13:42:24.791Z,60.80
2022-08-07T13:44:55.518Z,60.70
2022-08-07T13:48:05.540Z,60.60
2022-08-07T13:50:34.722Z,60.80
2022-08-07T13:53:21.756Z,60.90
2022-08-07T13:55:54.636Z,60.70
2022-08-07T13:58:48.386Z,60.80
2022-08-07T14:01:26.230Z,60.40
2022-08-07T14:04:07.135Z,60.50
2022-08-07T14:06:38.366Z,60.40
2022-08-07T14:09:09.767Z,61.50
2022-08-07T14:11:53.639Z,61.30
2022-08-07T14:14:41.411Z,60.90
2022-08-07T14:17:31.935Z,61.00
2022-08-07T14:20:40.223Z,61.10
2022-08-07T14:23:08.528Z,60.90
2022-08-07T14:25:45.824Z,60.60
2022-08-07T14:28:16.772Z,60.30
2022-08-07T14:30:52.015Z,59.60
2022-08-07T14:33:22.471Z,60.20
2022-08-07T14:35:55.812Z,60.60
2022-08-07T14:38:31.196Z,60.80
2022-08-07T14:41:12.414Z,61.00
2022-08-07T14:43:57.699Z,61.10
2022-08-07T14:46:33.411Z,61.40
2022-08-07T14:49:56.233Z,61.00
2022-08-07T14:52:02.954Z,61.70
2022-08-07T14:57:24.936Z,61.80
2022-08-07T15:00:06.875Z,61.10
2022-08-07T15:02:37.327Z,61.50
2022-08-07T15:05:20.094Z,61.40
2022-08-07T15:07:51.826Z,61.20
2022-08-07T15:10:29.609Z,61.40
2022-08-07T15:13:05.635Z,61.80
2022-08-07T15:15:52.528Z,61.40
2022-08-07T15:18:40.229Z,61.80
2022-08-07T15:21:58.874Z,61.20
2022-08-07T15:27:24.894Z,60.80
2022-08-07T15:33:03.935Z,61.60
2022-08-07T15:41:23.731Z,61.60
2022-08-07T15:44:13.066Z,62.00
2022-08-07T15:46:45.906Z,62.40
2022-08-07T15:50:04.905Z,62.60
2022-08-07T15:52:29.562Z,62.50
2022-08-07T15:55:03.637Z,63.20
2022-08-07T15:57:47.693Z,63.10
2022-08-07T16:00:31.881Z,62.60
2022-08-07T16:03:04.038Z,62.70
2022-08-07T16:05:32.337Z,62.70
2022-08-07T16:08:33.333Z,62.80
2022-08-07T16:11:26.631Z,62.60
2022-08-07T16:14:03.099Z,62.60
2022-08-07T16:16:57.658Z,62.90
2022-08-07T16:20:06.254Z,62.80
2022-08-07T16:22:36.520Z,63.60
2022-08-07T16:25:52.586Z,63.10
2022-08-07T16:30:05.492Z,63.50
2022-08-07T16:31:50.114Z,63.80
2022-08-07T16:34:48.500Z,63.30
2022-08-07T16:38:04.442Z,63.00
2022-08-07T16:40:30.941Z,63.30
2022-08-07T16:44:06.046Z,63.20
2022-08-07T16:47:07.896Z,63.40
2022-08-07T16:50:26.731Z,63.50
2022-08-07T16:53:15.007Z,63.40
2022-08-07T16:55:53.531Z,63.90
2022-08-07T16:59:14.421Z,64.20
2022-08-07T17:01:51.004Z,64.10
2022-08-07T17:04:24.573Z,64.40
2022-08-07T17:07:02.960Z,64.70
2022-08-07T17:10:07.971Z,64.80
2022-08-07T17:12:47.153Z,64.40
2022-08-07T17:15:20.699Z,64.30
2022-08-07T17:17:47.930Z,64.10
2022-08-07T17:20:41.789Z,64.50
2022-08-07T17:23:32.615Z,64.00
2022-08-07T17:26:30.676Z,63.80
2022-08-07T17:29:08.526Z,64.00
2022-08-07T17:31:44.413Z,64.60
2022-08-07T17:35:40.614Z,64.50
2022-08-07T17:38:09.724Z,64.80
2022-08-07T17:40:58.881Z,64.70
2022-08-07T17:44:02.683Z,64.30
2022-08-07T17:46:53.312Z,64.40
2022-08-07T17:49:51.987Z,63.80
2022-08-07T17:52:39.571Z,63.80
2022-08-07T17:56:00.546Z,64.30
2022-08-07T17:58:13.705Z,64.80
2022-08-07T18:00:59.162Z,64.60
2022-08-07T18:04:04.476Z,64.80
2022-08-07T18:06:42.980Z,65.20
2022-08-07T18:09:48.309Z,65.50
2022-08-07T18:12:32.603Z,65.00
2022-08-07T18:15:12.074Z,64.90
2022-08-07T18:18:46.371Z,65.10
2022-08-07T18:21:07.068Z,65.40
2022-08-07T18:24:02.086Z,65.40
2022-08-07T18:26:40.693Z,65.10
2022-08-07T18:30:05.928Z,64.30
2022-08-07T18:32:39.163Z,64.10
2022-08-07T18:35:51.538Z,64.50
2022-08-07T18:39:01.260Z,64.70
2022-08-07T18:41:49.549Z,65.20
2022-08-07T18:47:47.764Z,66.00
2022-08-07T18:50:47.567Z,66.60
2022-08-07T18:53:57.102Z,66.60
2022-08-07T18:56:40.178Z,66.60
2022-08-07T18:59:47.086Z,66.70
2022-08-07T19:02:55.882Z,67.00
2022-08-07T19:06:03.251Z,67.70
2022-08-07T19:08:58.594Z,68.20
2022-08-07T19:12:04.107Z,68.70
2022-08-07T19:14:59.604Z,68.90
2022-08-07T19:17:59.259Z,69.20
2022-08-07T19:21:09.748Z,69.50
2022-08-07T19:23:58.940Z,69.60
2022-08-07T19:26:29.260Z,69.40
2022-08-07T19:31:04.299Z,69.60
2022-08-07T19:32:25.528Z,69.80
2022-08-07T19:34:55.147Z,69.60
2022-08-07T19:37:23.608Z,69.10
2022-08-07T19:40:05.670Z,68.20
2022-08-07T19:42:42.708Z,67.50
2022-08-07T19:46:06.306Z,67.20
2022-08-07T19:48:18.703Z,67.00
2022-08-07T19:50:53.422Z,66.50
2022-08-07T19:54:35.361Z,66.20
2022-08-07T19:57:51.189Z,65.60
2022-08-07T19:58:58.030Z,65.30
2022-08-07T20:01:52.911Z,65.10
2022-08-07T20:04:32.263Z,64.70
2022-08-07T20:07:09.042Z,65.30
2022-08-07T20:10:37.332Z,64.40
2022-08-07T20:12:37.933Z,64.40
2022-08-07T20:15:15.636Z,64.20
2022-08-07T20:18:01.519Z,64.40
2022-08-07T20:20:31.664Z,64.70
2022-08-07T20:23:11.009Z,64.90
2022-08-07T20:25:53.213Z,64.60
2022-08-07T20:28:29.495Z,64.50
2022-08-07T20:30:59.087Z,64.40
2022-08-07T20:33:37.757Z,64.70
2022-08-07T20:36:07.872Z,64.90
2022-08-07T20:38:59.503Z,65.00
2022-08-07T20:41:34.187Z,64.70
2022-08-07T20:44:12.796Z,64.80
2022-08-07T20:46:43.855Z,64.40
2022-08-07T20:50:00.248Z,64.60
2022-08-07T20:52:05.593Z,64.60
2022-08-07T20:54:45.581Z,64.30
2022-08-07T20:57:24.501Z,64.30
2022-08-07T21:00:07.624Z,64.40
2022-08-07T21:02:59.168Z,64.60
2022-08-07T21:05:56.208Z,64.80
2022-08-07T21:08:46.700Z,65.00
2022-08-07T21:11:21.928Z,65.50
2022-08-07T21:14:29.650Z,65.60
2022-08-07T21:18:01.047Z,65.40
2022-08-07T21:20:05.322Z,65.70
2022-08-07T21:22:44.997Z,66.40
2022-08-07T21:25:29.541Z,66.10
2022-08-07T21:28:13.475Z,66.40
2022-08-07T21:30:49.408Z,67.20
2022-08-07T21:33:21.488Z,67.90
2022-08-07T21:36:04.850Z,68.40
2022-08-07T21:38:32.854Z,68.60
2022-08-07T21:41:08.185Z,68.60
2022-08-07T21:43:56.349Z,69.30
2022-08-07T21:46:38.200Z,69.10
2022-08-07T21:49:25.739Z,68.90
2022-08-07T21:52:02.111Z,69.30
2022-08-07T21:54:37.956Z,69.50
2022-08-07T21:57:39.694Z,69.70
2022-08-07T22:00:22.113Z,69.80
2022-08-07T22:02:53.757Z,69.30
2022-08-07T22:05:45.614Z,69.40
2022-08-07T22:08:10.444Z,69.30
2022-08-07T22:10:38.021Z,69.30
2022-08-07T22:13:12.615Z,69.00
2022-08-07T22:16:42.750Z,69.00
2022-08-07T22:19:07.460Z,69.40
2022-08-07T22:22:04.883Z,69.80
2022-08-07T22:24:35.829Z,69.90
2022-08-07T22:27:12.381Z,70.20
2022-08-07T22:29:48.274Z,70.40
2022-08-07T22:32:20.512Z,70.80
2022-08-07T22:34:53.350Z,71.10
2022-08-07T22:38:04.390Z,70.60
2022-08-07T22:40:44.040Z,70.70
2022-08-07T22:43:13.170Z,70.30
2022-08-07T22:46:40.572Z,71.30
2022-08-07T22:48:55.989Z,70.80
2022-08-07T22:51:49.270Z,71.70
2022-08-07T22:54:31.407Z,72.00
2022-08-07T22:57:02.448Z,71.70
2022-08-07T22:59:38.751Z,71.70
2022-08-07T23:02:23.932Z,71.70
2022-08-07T23:06:06.831Z,70.70
2022-08-07T23:08:23.813Z,70.60
2022-08-07T23:11:12.868Z,71.00
2022-08-07T23:14:15.386Z,71.60
2022-08-07T23:16:58.820Z,71.90
2022-08-07T23:20:03.181Z,72.30
2022-08-07T23:22:48.951Z,72.40
2022-08-07T23:25:37.916Z,72.10
2022-08-07T23:28:21.224Z,72.10
2022-08-07T23:31:18.861Z,72.40
2022-08-07T23:34:34.243Z,72.60
2022-08-07T23:37:19.210Z,73.30
2022-08-07T23:40:07.395Z,72.30
2022-08-07T23:42:43.433Z,73.10
2022-08-07T23:45:33.497Z,72.50
2022-08-07T23:48:16.955Z,72.60
2022-08-07T23:50:48.486Z,72.50
2022-08-07T23:53:45.944Z,73.20
2022-08-07T23:56:12.115Z,73.00
2022-08-07T23:58:58.572Z,72.90
